createdAt,value
2022-11-23T00:01:02.075Z,5.97
2022-11-23T00:03:49.631Z,5.38
2022-11-23T00:06:37.199Z,6.33
2022-11-23T00:09:24.755Z,6.67
2022-11-23T00:12:12.333Z,6.57
2022-11-23T00:14:59.893Z,5.96
2022-11-23T00:17:47.442Z,5.42
2022-11-23T00:20:35.024Z,5.30
2022-11-23T00:23:22.622Z,5.23
2022-11-23T00:26:10.189Z,5.38
2022-11-23T00:28:57.764Z,5.30
2022-11-23T00:31:45.358Z,6.16
2022-11-23T00:34:32.915Z,6.99
2022-11-23T00:37:20.483Z,7.40
2022-11-23T00:40:08.042Z,11.08
2022-11-23T00:42:55.626Z,12.81
2022-11-23T00:45:43.345Z,9.27
2022-11-23T00:48:33.046Z,7.97
2022-11-23T00:51:20.591Z,7.25
2022-11-23T00:54:08.198Z,9.24
2022-11-23T00:56:55.779Z,13.46
2022-11-23T00:59:43.363Z,10.82
2022-11-23T01:02:30.976Z,6.85
2022-11-23T01:05:18.518Z,6.13
2022-11-23T01:08:08.074Z,5.88
2022-11-23T01:10:55.612Z,6.08
2022-11-23T01:13:43.208Z,5.93
2022-11-23T01:16:30.782Z,5.49
2022-11-23T01:19:18.344Z,5.47
2022-11-23T01:22:05.905Z,5.07
2022-11-23T01:24:53.493Z,4.76
2022-11-23T01:27:41.182Z,4.48
2022-11-23T01:30:28.738Z,4.55
2022-11-23T01:33:16.310Z,4.16
2022-11-23T01:36:03.879Z,4.32
2022-11-23T01:38:51.447Z,4.16
2022-11-23T01:41:38.987Z,4.09
2022-11-23T01:44:26.543Z,4.62
2022-11-23T01:47:14.118Z,5.13
2022-11-23T01:50:01.701Z,5.22
2022-11-23T01:52:49.255Z,5.26
2022-11-23T01:55:36.838Z,5.45
2022-11-23T01:58:24.405Z,5.87
2022-11-23T02:01:12.058Z,6.43
2022-11-23T02:03:59.702Z,6.15
2022-11-23T02:06:47.388Z,5.98
2022-11-23T02:09:35.027Z,5.93
2022-11-23T02:12:22.617Z,5.94
2022-11-23T02:15:10.166Z,5.36
2022-11-23T02:17:57.734Z,5.03
2022-11-23T02:20:45.298Z,5.20
2022-11-23T02:23:32.879Z,5.53
2022-11-23T02:26:20.418Z,5.57
2022-11-23T02:29:08.030Z,6.17
2022-11-23T02:31:55.600Z,6.54
2022-11-23T02:34:43.168Z,7.36
2022-11-23T02:37:30.746Z,6.96
2022-11-23T02:40:18.298Z,7.03
2022-11-23T02:43:05.865Z,6.25
2022-11-23T02:45:53.418Z,5.84
2022-11-23T02:48:40.979Z,6.04
2022-11-23T02:51:28.583Z,5.68
2022-11-23T02:54:16.181Z,5.70
2022-11-23T02:57:03.749Z,6.23
2022-11-23T02:59:51.302Z,6.37
2022-11-23T03:02:38.852Z,6.94
2022-11-23T03:05:26.418Z,7.14
2022-11-23T03:08:13.981Z,7.29
2022-11-23T03:11:01.565Z,7.12
2022-11-23T03:13:49.116Z,6.76
2022-11-23T03:16:36.678Z,6.73
2022-11-23T03:19:24.232Z,6.74
2022-11-23T03:22:11.820Z,6.22
2022-11-23T03:24:59.399Z,6.33
2022-11-23T03:27:46.984Z,5.89
2022-11-23T03:30:34.530Z,5.83
2022-11-23T03:33:22.098Z,5.86
2022-11-23T03:36:09.686Z,4.85
2022-11-23T03:38:57.239Z,4.67
2022-11-23T03:41:44.876Z,4.83
2022-11-23T03:44:32.441Z,3.99
2022-11-23T03:47:19.987Z,3.19
2022-11-23T03:50:07.561Z,2.64
2022-11-23T03:52:55.112Z,2.77
2022-11-23T03:55:42.707Z,2.86
2022-11-23T03:58:30.247Z,3.38
2022-11-23T04:01:17.904Z,2.61
2022-11-23T04:04:05.535Z,2.61
2022-11-23T04:06:53.075Z,2.66
2022-11-23T04:09:40.651Z,2.63
2022-11-23T04:12:28.187Z,2.66
2022-11-23T04:15:19.599Z,3.14
2022-11-23T04:18:07.161Z,2.91
2022-11-23T04:20:54.707Z,3.04
2022-11-23T04:23:42.244Z,3.04
2022-11-23T04:26:29.812Z,2.76
2022-11-23T04:29:17.359Z,2.76
2022-11-23T04:32:04.923Z,2.71
2022-11-23T04:34:52.507Z,2.54
2022-11-23T04:37:40.078Z,2.47
2022-11-23T04:40:27.638Z,2.49
2022-11-23T04:43:15.170Z,2.03
2022-11-23T04:46:02.734Z,2.31
2022-11-23T04:48:50.282Z,2.11
2022-11-23T04:51:37.835Z,1.92
2022-11-23T04:54:25.371Z,2.05
2022-11-23T04:57:12.922Z,1.91
2022-11-23T05:00:00.470Z,3.25
2022-11-23T05:02:48.051Z,3.73
2022-11-23T05:05:35.638Z,2.79
2022-11-23T05:08:23.222Z,3.05
2022-11-23T05:11:10.781Z,3.03
2022-11-23T05:13:58.409Z,1.96
2022-11-23T05:16:45.935Z,1.75
2022-11-23T05:19:33.800Z,1.83
2022-11-23T05:22:21.555Z,1.65
2022-11-23T05:25:09.142Z,1.61
2022-11-23T05:27:56.706Z,1.71
2022-11-23T05:30:44.247Z,1.55
2022-11-23T05:33:31.935Z,1.78
2022-11-23T05:36:19.475Z,1.72
2022-11-23T05:39:07.065Z,1.67
2022-11-23T05:41:54.619Z,1.69
2022-11-23T05:44:42.174Z,1.72
2022-11-23T05:47:29.739Z,1.67
2022-11-23T05:50:17.303Z,1.86
2022-11-23T05:53:04.875Z,1.57
2022-11-23T05:55:52.447Z,1.65
2022-11-23T05:58:40.031Z,1.74
2022-11-23T06:01:27.584Z,1.62
2022-11-23T06:04:15.218Z,1.43
2022-11-23T06:07:02.794Z,1.79
2022-11-23T06:09:50.399Z,1.64
2022-11-23T06:12:37.933Z,1.85
2022-11-23T06:15:25.532Z,1.68
2022-11-23T06:18:13.093Z,1.81
2022-11-23T06:21:00.661Z,1.80
2022-11-23T06:23:48.237Z,1.80
2022-11-23T06:26:35.882Z,1.78
2022-11-23T06:29:23.447Z,1.93
2022-11-23T06:32:11.037Z,2.06
2022-11-23T06:35:00.986Z,1.80
2022-11-23T06:37:50.939Z,1.83
2022-11-23T06:40:38.539Z,1.90
2022-11-23T06:43:26.147Z,1.94
2022-11-23T06:46:13.709Z,1.83
2022-11-23T06:49:01.305Z,1.89
2022-11-23T06:51:48.875Z,1.89
2022-11-23T06:54:36.462Z,1.84
2022-11-23T06:57:24.018Z,1.88
2022-11-23T07:00:13.591Z,1.74
2022-11-23T07:03:01.143Z,1.81
2022-11-23T07:05:48.702Z,1.38
2022-11-23T07:08:36.246Z,1.51
2022-11-23T07:11:23.813Z,1.37
2022-11-23T07:14:11.393Z,1.27
2022-11-23T07:16:59.020Z,1.43
2022-11-23T07:19:46.571Z,1.16
2022-11-23T07:22:34.132Z,1.25
2022-11-23T07:25:21.689Z,1.13
2022-11-23T07:28:09.272Z,1.32
2022-11-23T07:30:56.869Z,1.27
2022-11-23T07:33:44.432Z,1.31
2022-11-23T07:36:32.045Z,1.29
2022-11-23T07:39:19.800Z,1.21
2022-11-23T07:42:31.735Z,1.23
2022-11-23T07:45:18.061Z,1.66
2022-11-23T07:48:05.669Z,1.33
2022-11-23T07:50:53.215Z,1.61
2022-11-23T07:53:40.889Z,1.66
2022-11-23T07:56:28.452Z,1.67
2022-11-23T07:59:16.023Z,1.80
2022-11-23T08:02:03.648Z,1.70
2022-11-23T08:04:51.333Z,1.80
2022-11-23T08:07:38.961Z,1.71
2022-11-23T08:10:26.577Z,1.61
2022-11-23T08:13:14.135Z,1.50
2022-11-23T08:16:01.728Z,1.43
2022-11-23T08:18:49.313Z,1.49
2022-11-23T08:21:36.903Z,1.29
2022-11-23T08:24:24.488Z,1.24
2022-11-23T08:27:12.015Z,1.20
2022-11-23T08:29:59.584Z,1.20
2022-11-23T08:32:47.124Z,1.19
2022-11-23T08:35:34.678Z,1.11
2022-11-23T08:38:22.249Z,1.27
2022-11-23T08:41:09.844Z,1.81
2022-11-23T08:43:57.433Z,2.71
2022-11-23T08:46:45.016Z,3.20
2022-11-23T08:49:32.598Z,3.92
2022-11-23T08:52:20.193Z,4.81
2022-11-23T08:55:07.760Z,5.77
2022-11-23T08:57:55.396Z,5.63
2022-11-23T09:00:43.000Z,6.16
2022-11-23T09:03:30.608Z,5.96
2022-11-23T09:06:18.174Z,5.60
2022-11-23T09:09:05.719Z,5.63
2022-11-23T09:11:53.377Z,5.48
2022-11-23T09:14:40.917Z,5.60
2022-11-23T09:17:28.486Z,5.25
2022-11-23T09:20:16.102Z,5.57
2022-11-23T09:23:03.693Z,5.09
2022-11-23T09:25:51.264Z,5.17
2022-11-23T09:28:44.323Z,4.86
2022-11-23T09:31:32.468Z,5.01
2022-11-23T09:34:20.050Z,4.63
2022-11-23T09:37:07.612Z,4.49
2022-11-23T09:39:55.242Z,4.16
2022-11-23T09:42:42.818Z,4.37
2022-11-23T09:45:30.492Z,3.75
2022-11-23T09:48:18.030Z,3.88
2022-11-23T09:51:07.634Z,3.95
2022-11-23T09:53:55.199Z,3.76
2022-11-23T09:56:42.781Z,3.66
2022-11-23T09:59:30.368Z,3.86
2022-11-23T10:02:17.913Z,3.81
2022-11-23T10:05:05.488Z,3.84
2022-11-23T10:07:53.073Z,3.66
2022-11-23T10:10:40.627Z,3.74
2022-11-23T10:13:28.238Z,3.48
2022-11-23T10:16:15.856Z,3.42
2022-11-23T10:19:03.405Z,3.54
2022-11-23T10:21:50.981Z,3.64
2022-11-23T10:24:38.593Z,3.50
2022-11-23T10:27:26.158Z,3.34
2022-11-23T10:30:13.716Z,3.27
2022-11-23T10:33:01.279Z,3.16
2022-11-23T10:35:48.833Z,3.41
2022-11-23T10:38:36.388Z,3.31
2022-11-23T10:41:23.957Z,2.88
2022-11-23T10:44:11.527Z,3.13
2022-11-23T10:46:59.116Z,2.71
2022-11-23T10:49:46.670Z,2.87
2022-11-23T10:52:34.300Z,2.88
2022-11-23T10:55:21.860Z,2.59
2022-11-23T10:58:09.427Z,2.68
2022-11-23T11:00:56.980Z,2.73
2022-11-23T11:03:44.563Z,2.56
2022-11-23T11:06:32.137Z,2.34
2022-11-23T11:09:19.696Z,2.08
2022-11-23T11:12:07.280Z,2.05
2022-11-23T11:14:54.819Z,1.79
2022-11-23T11:17:42.399Z,2.16
2022-11-23T11:20:29.966Z,1.77
2022-11-23T11:23:17.546Z,2.01
2022-11-23T11:26:05.110Z,1.75
2022-11-23T11:28:52.697Z,1.82
2022-11-23T11:31:40.277Z,1.90
2022-11-23T11:34:27.839Z,1.85
2022-11-23T11:37:15.427Z,1.83
2022-11-23T11:40:02.991Z,1.75
2022-11-23T11:42:50.582Z,1.54
2022-11-23T11:45:38.127Z,1.53
2022-11-23T11:48:25.686Z,1.64
2022-11-23T11:51:13.276Z,1.42
2022-11-23T11:54:00.895Z,1.34
2022-11-23T11:56:48.477Z,1.07
2022-11-23T11:59:36.372Z,1.20
2022-11-23T12:02:24.232Z,1.00
2022-11-23T12:05:11.918Z,1.03
2022-11-23T12:07:59.475Z,1.01
2022-11-23T12:10:47.049Z,0.87
2022-11-23T12:13:34.688Z,0.98
2022-11-23T12:16:22.278Z,0.89
2022-11-23T12:19:09.874Z,0.93
2022-11-23T12:21:57.471Z,0.98
2022-11-23T12:24:45.086Z,0.92
2022-11-23T12:27:32.687Z,0.74
2022-11-23T12:30:20.279Z,0.75
2022-11-23T12:33:07.866Z,0.77
2022-11-23T12:35:55.422Z,0.88
2022-11-23T12:38:42.997Z,0.79
2022-11-23T12:41:30.549Z,0.82
2022-11-23T12:44:18.108Z,0.92
2022-11-23T12:47:05.702Z,0.78
2022-11-23T12:49:53.277Z,0.74
2022-11-23T12:52:40.843Z,0.70
2022-11-23T12:55:28.401Z,0.86
2022-11-23T12:58:15.963Z,0.76
2022-11-23T13:01:03.721Z,0.87
2022-11-23T13:03:51.366Z,1.00
2022-11-23T13:06:38.916Z,0.87
2022-11-23T13:09:26.510Z,0.90
2022-11-23T13:12:14.037Z,1.05
2022-11-23T13:15:01.634Z,1.00
2022-11-23T13:17:49.208Z,0.90
2022-11-23T13:20:36.749Z,1.01
2022-11-23T13:23:24.394Z,0.84
2022-11-23T13:26:11.946Z,0.92
2022-11-23T13:28:59.516Z,0.88
2022-11-23T13:31:47.137Z,0.97
2022-11-23T13:34:34.980Z,0.97
2022-11-23T13:37:22.698Z,1.00
2022-11-23T13:40:10.246Z,1.00
2022-11-23T13:42:57.800Z,1.04
2022-11-23T13:45:45.388Z,0.98
2022-11-23T13:51:40.454Z,1.28
2022-11-23T13:54:28.015Z,1.29
2022-11-23T13:57:15.561Z,1.52
2022-11-23T14:00:03.150Z,1.62
2022-11-23T14:02:56.132Z,1.78
2022-11-23T14:05:43.691Z,2.26
2022-11-23T14:08:31.355Z,2.10
2022-11-23T14:11:20.887Z,2.23
2022-11-23T14:14:08.454Z,2.25
2022-11-23T14:16:56.119Z,2.24
2022-11-23T14:19:43.754Z,2.22
2022-11-23T14:22:31.329Z,2.29
2022-11-23T14:25:18.906Z,2.46
2022-11-23T14:28:06.509Z,2.54
2022-11-23T14:30:54.066Z,2.47
2022-11-23T14:33:41.655Z,2.63
2022-11-23T14:36:29.198Z,2.75
2022-11-23T14:39:16.812Z,2.65
2022-11-23T14:42:04.357Z,2.79
2022-11-23T14:44:51.972Z,3.15
2022-11-23T14:47:39.677Z,3.06
2022-11-23T14:50:27.272Z,3.33
2022-11-23T14:53:14.871Z,3.11
2022-11-23T14:56:02.631Z,3.15
2022-11-23T14:58:50.172Z,2.91
2022-11-23T15:01:37.798Z,3.22
2022-11-23T15:04:25.479Z,3.16
2022-11-23T15:07:13.346Z,3.05
2022-11-23T15:10:00.932Z,3.24
2022-11-23T15:12:48.511Z,3.15
2022-11-23T15:15:36.054Z,3.44
2022-11-23T15:18:23.662Z,3.46
2022-11-23T15:21:11.241Z,3.23
2022-11-23T15:23:58.792Z,3.26
2022-11-23T15:26:49.122Z,2.69
2022-11-23T15:29:37.655Z,2.56
2022-11-23T15:32:34.267Z,2.48
2022-11-23T15:35:22.634Z,2.31
2022-11-23T15:38:10.186Z,2.72
2022-11-23T15:40:57.737Z,2.56
2022-11-23T15:43:45.363Z,2.58
2022-11-23T15:46:32.950Z,2.82
2022-11-23T15:49:20.555Z,2.44
2022-11-23T15:52:08.103Z,2.32
2022-11-23T15:54:55.769Z,2.64
2022-11-23T15:57:43.346Z,2.87
2022-11-23T16:00:30.906Z,2.86
2022-11-23T16:03:18.501Z,2.65
2022-11-23T16:06:06.101Z,2.79
2022-11-23T16:08:53.699Z,2.66
2022-11-23T16:11:41.267Z,2.47
2022-11-23T16:14:31.891Z,2.80
2022-11-23T16:17:19.943Z,3.27
2022-11-23T16:20:07.630Z,4.86
2022-11-23T16:22:55.215Z,10.09
2022-11-23T16:25:42.771Z,7.03
2022-11-23T16:28:30.354Z,10.61
2022-11-23T16:31:17.969Z,13.03
2022-11-23T16:34:05.620Z,5.77
2022-11-23T16:36:53.159Z,9.73
2022-11-23T16:39:40.738Z,5.31
2022-11-23T16:42:28.282Z,5.41
2022-11-23T16:45:15.877Z,5.00
2022-11-23T16:48:03.476Z,4.89
2022-11-23T16:50:51.106Z,4.48
2022-11-23T16:54:08.214Z,5.01
2022-11-23T16:56:46.202Z,4.22
2022-11-23T16:59:33.964Z,2.30
2022-11-23T17:02:21.740Z,2.23
2022-11-23T17:05:09.339Z,2.62
2022-11-23T17:07:56.929Z,2.36
2022-11-23T17:10:44.560Z,2.41
2022-11-23T17:13:32.119Z,2.34
2022-11-23T17:16:19.728Z,2.22
2022-11-23T17:19:07.394Z,1.83
2022-11-23T17:21:54.966Z,2.06
2022-11-23T17:24:42.553Z,1.99
2022-11-23T17:27:30.100Z,1.70
2022-11-23T17:30:17.674Z,1.55
2022-11-23T17:33:05.234Z,1.44
2022-11-23T17:35:52.811Z,1.67
2022-11-23T17:38:40.394Z,1.20
2022-11-23T17:41:27.942Z,1.18
2022-11-23T17:44:15.536Z,1.34
2022-11-23T17:47:03.086Z,1.24
2022-11-23T17:49:50.671Z,1.26
2022-11-23T17:52:38.245Z,1.46
2022-11-23T17:55:25.832Z,1.40
2022-11-23T17:58:13.378Z,1.53
2022-11-23T18:01:00.985Z,1.36
2022-11-23T18:03:48.707Z,1.29
2022-11-23T18:06:36.384Z,1.64
2022-11-23T18:09:23.998Z,12.89
2022-11-23T18:12:11.609Z,2.82
2022-11-23T18:14:59.191Z,2.16
2022-11-23T18:17:46.754Z,1.97
2022-11-23T18:20:34.319Z,2.10
2022-11-23T18:23:21.889Z,2.09
2022-11-23T18:26:09.471Z,2.23
2022-11-23T18:28:57.035Z,2.56
2022-11-23T18:31:44.689Z,2.02
2022-11-23T18:34:32.279Z,1.87
2022-11-23T18:37:19.849Z,2.34
2022-11-23T18:40:07.410Z,1.79
2022-11-23T18:42:54.998Z,2.16
2022-11-23T18:45:42.535Z,3.95
2022-11-23T18:48:30.131Z,1.90
2022-11-23T18:51:17.722Z,1.81
2022-11-23T18:54:06.346Z,1.79
2022-11-23T18:56:53.940Z,2.00
2022-11-23T18:59:57.340Z,3.56
2022-11-23T19:02:45.709Z,2.74
2022-11-23T19:05:33.296Z,6.96
2022-11-23T19:08:20.859Z,3.07
2022-11-23T19:11:08.437Z,3.89
2022-11-23T19:13:56.006Z,2.30
2022-11-23T19:16:43.592Z,2.12
2022-11-23T19:19:31.585Z,1.96
2022-11-23T19:22:19.433Z,2.25
2022-11-23T19:25:06.998Z,2.25
2022-11-23T19:27:54.568Z,2.42
2022-11-23T19:30:42.304Z,3.47
2022-11-23T19:34:02.308Z,2.53
2022-11-23T19:36:49.860Z,2.75
2022-11-23T19:39:37.434Z,2.69
2022-11-23T19:42:25.094Z,2.88
2022-11-23T19:45:12.642Z,3.21
2022-11-23T19:48:00.230Z,3.35
2022-11-23T19:50:47.767Z,3.03
2022-11-23T19:53:35.348Z,3.24
2022-11-23T19:56:22.901Z,3.23
2022-11-23T19:59:10.477Z,3.18
2022-11-23T20:01:58.180Z,3.12
2022-11-23T20:04:45.810Z,2.79
2022-11-23T20:07:33.471Z,2.57
2022-11-23T20:10:21.130Z,2.38
2022-11-23T20:13:08.690Z,2.23
2022-11-23T20:15:56.267Z,1.90
2022-11-23T20:18:43.876Z,1.89
2022-11-23T20:21:31.430Z,1.75
2022-11-23T20:24:18.999Z,1.79
2022-11-23T20:27:06.552Z,1.85
2022-11-23T20:29:54.129Z,1.78
2022-11-23T20:32:41.672Z,1.94
2022-11-23T20:35:29.224Z,1.77
2022-11-23T20:38:16.775Z,2.14
2022-11-23T20:41:04.367Z,2.04
2022-11-23T20:43:51.896Z,1.94
2022-11-23T20:49:46.939Z,2.02
2022-11-23T20:52:34.494Z,2.08
2022-11-23T20:55:22.041Z,2.24
2022-11-23T20:58:09.618Z,2.05
2022-11-23T21:00:57.168Z,2.18
2022-11-23T21:03:44.811Z,2.26
2022-11-23T21:06:37.212Z,2.14
2022-11-23T21:09:26.473Z,2.31
2022-11-23T21:12:14.056Z,2.08
2022-11-23T21:15:01.660Z,2.19
2022-11-23T21:17:49.255Z,2.18
2022-11-23T21:20:36.879Z,2.30
2022-11-23T21:23:24.589Z,2.49
2022-11-23T21:26:12.131Z,2.33
2022-11-23T21:28:59.687Z,2.20
2022-11-23T21:31:47.372Z,2.35
2022-11-23T21:34:35.278Z,2.35
2022-11-23T21:37:23.054Z,2.20
2022-11-23T21:40:10.608Z,2.13
2022-11-23T21:42:58.145Z,2.12
2022-11-23T21:45:45.755Z,1.94
2022-11-23T21:48:33.325Z,1.84
2022-11-23T21:51:20.908Z,2.20
2022-11-23T21:54:08.522Z,1.84
2022-11-23T21:56:56.109Z,1.94
2022-11-23T21:59:43.698Z,1.87
2022-11-23T22:02:31.321Z,1.89
2022-11-23T22:05:18.930Z,1.85
2022-11-23T22:08:28.192Z,1.75
2022-11-23T22:11:15.999Z,2.15
2022-11-23T22:14:03.534Z,2.36
2022-11-23T22:16:51.234Z,2.41
2022-11-23T22:19:40.851Z,2.80
2022-11-23T22:22:28.436Z,3.00
2022-11-23T22:25:16.003Z,2.80
2022-11-23T22:28:03.579Z,3.03
2022-11-23T22:30:51.214Z,2.98
2022-11-23T22:33:38.774Z,3.19
2022-11-23T22:36:26.322Z,3.30
2022-11-23T22:39:13.898Z,3.68
2022-11-23T22:42:03.457Z,3.28
2022-11-23T22:44:51.035Z,3.34
2022-11-23T22:47:38.605Z,3.73
2022-11-23T22:50:26.164Z,3.43
2022-11-23T22:53:13.703Z,3.65
2022-11-23T22:56:01.283Z,3.83
2022-11-23T22:58:48.822Z,3.85
2022-11-23T23:01:36.367Z,3.88
2022-11-23T23:04:23.939Z,3.91
2022-11-23T23:07:11.573Z,4.26
2022-11-23T23:09:59.132Z,4.55
2022-11-23T23:12:46.698Z,4.21
2022-11-23T23:15:34.266Z,3.88
2022-11-23T23:18:21.798Z,4.29
2022-11-23T23:21:09.359Z,4.24
2022-11-23T23:23:56.935Z,8.60
2022-11-23T23:26:44.490Z,4.97
2022-11-23T23:29:32.207Z,4.99
2022-11-23T23:32:19.746Z,5.32
2022-11-23T23:35:07.335Z,6.19
2022-11-23T23:37:54.875Z,6.15
2022-11-23T23:40:42.450Z,5.99
2022-11-23T23:43:29.978Z,5.25
2022-11-23T23:46:17.666Z,5.17
2022-11-23T23:49:05.405Z,4.86
2022-11-23T23:51:54.947Z,4.58
2022-11-23T23:54:42.506Z,4.58
2022-11-23T23:57:30.107Z,4.34
